Glendive, MT

2:31 PM MST on February 13, 2016 (GMT -0700)
heights | | Change Station
CLOSE
Current Station
Personal Weather Station
Location: Glendive, MT
Elevation: 2077 ft
Nearby Weather Stations
Active Advisory: Ice Storm Warning

Elev 2077 ft 47.12 °N, 104.71 °W | Updated 6 minutes ago

Ice Pellets
Ice Pellets
36.7 °F
Feels Like 34 °F
N
3.2
Wind Variable Wind from SW

Today
High -- | Low -- °F
--% Chance of Precip.
Yesterday
High -- | Low -- °F
Precip. -- in
Pressure 29.81 in
Visibility 10.0 miles
Clouds Mostly Cloudy 5500 ft
Overcast 7500 ft
Windchill 34 °F
Dew Point 33 °F
Humidity 85%
Rainfall 0.05 in
Snow Depth Not available.
7:07 AM 5:19 PM
Waxing Crescent, 34% visible
METAR KGDV 132115Z AUTO 17007KT 10SM BKN055 OVC075 02/M01 A2981 RMK AO1
Pressure 29.81 in
Visibility 10.0 miles
Clouds Mostly Cloudy 5500 ft
Overcast 7500 ft
Windchill 34 °F
Dew Point 33 °F
Humidity 85%
Rainfall 0.05 in
Snow Depth Not available.
7:07 AM 5:19 PM
Waxing Crescent, 34% visible
METAR KGDV 132115Z AUTO 17007KT 10SM BKN055 OVC075 02/M01 A2981 RMK AO1

10-Day Weather Forecast

Almanac

Astronomy

Feb. 13, 2016 Rise Set
Actual Time
Civil Twilight
Nautical Twilight
Astronomical Twilight
Moon
Length of Visible Light
Length of Day
Tomorrow will be .
, % of the Moon is Illuminated

Today's Extremes

State Highs State Lows

Community

WunderPhotos

Upload Photos

1,892,682 photos uploaded!

WunderBlog® & News

Nearby

Air Quality

  Air Quality AQ Index Pollutant
Not available.

Snow Depth

Station Depth Elevation

Earthquake Activity

City Distance Mag. Time & Date
Minimum magnitude displayed is 2.5.

Coastal Water Temperatures

Place Temperature

Stations

Nearby Weather Stations

Station Location Temp. Windchill Dew Point Humidity Wind Precip. Elev Updated Type
                   

Watches & Warnings

Ice Storm Warning
Issued: 2:04 PM MST Feb. 13, 2016 – National Weather Service

... Ice Storm Warning remains in effect until 3 PM MST this
afternoon...

* ice accumulations... 1/4 to 1/2 inch.

* Timing... through mid afternoon.

* Impacts... travel on icy roads has become treacherous. Trees
and power lines may become heavy with ice and come down.

Precautionary/preparedness actions...

Travel is strongly discouraged. If you must travel... keep an
extra flashlight... food... and water in your vehicle in case of
an emergency.